KADG/ADG METAR and TAF weather

Enter ICAO airport designator
Station Type Date Time Source
KADG METAR 2020/09/20 07:53 UTC NOAA

KADG 200753Z AUTO 00000KT 10SM CLR 04/03 A3043 RMK AO2 SLP310 T00390028 TSNO


Station Type Date Time Source
KADG Decoded METAR 2020/09/20 07:53 UTC NOAA

ADRIAN LENAWEE COUNTY AIRPORT, MI, United States (KADG) 41-52N 84-05W 241M
Sep 20, 2020 - 03:53 AM EDT / 2020.09.20 0753 UTC
Wind: Calm:0
Visibility: 10 mile(s):0
Sky conditions: clear
Temperature: 39.0 F (3.9 C)
Dew Point: 37.0 F (2.8 C)
Relative Humidity: 92%
Pressure (altimeter): 30.43 in. Hg (1030 hPa)
ob: KADG 200753Z AUTO 00000KT 10SM CLR 04/03 A3043 RMK AO2 SLP310 T00390028 TSNO
cycle: 8

Station Type Date Time Source
KADG TAF UTC NOAA

Error!

Example: see airport list